sensor_id;sensor_type;location;lat;lon;timestamp;P1;durP1;ratioP1;P2;durP2;ratioP2
54263;SDS011;40178;53.042;6.406;2022-08-19T00:00:35;7.03;;;3.60;;
54263;SDS011;40178;53.042;6.406;2022-08-19T00:03:02;7.30;;;3.92;;
54263;SDS011;40178;53.042;6.406;2022-08-19T00:05:28;4.53;;;2.28;;
54263;SDS011;40178;53.042;6.406;2022-08-19T00:07:54;4.55;;;2.00;;
54263;SDS011;40178;53.042;6.406;2022-08-19T00:10:20;4.50;;;1.40;;
54263;SDS011;40178;53.042;6.406;2022-08-19T00:12:46;4.60;;;1.75;;
54263;SDS011;40178;53.042;6.406;2022-08-19T00:15:14;4.43;;;2.08;;
54263;SDS011;40178;53.042;6.406;2022-08-19T00:17:42;6.50;;;4.03;;
54263;SDS011;40178;53.042;6.406;2022-08-19T00:20:10;6.43;;;3.08;;
54263;SDS011;40178;53.042;6.406;2022-08-19T00:22:37;6.20;;;3.20;;
54263;SDS011;40178;53.042;6.406;2022-08-19T00:25:04;7.10;;;4.05;;
54263;SDS011;40178;53.042;6.406;2022-08-19T00:27:30;7.10;;;3.97;;
54263;SDS011;40178;53.042;6.406;2022-08-19T00:29:56;8.40;;;5.10;;
54263;SDS011;40178;53.042;6.406;2022-08-19T00:32:23;8.00;;;4.32;;
54263;SDS011;40178;53.042;6.406;2022-08-19T00:34:50;9.35;;;4.22;;
54263;SDS011;40178;53.042;6.406;2022-08-19T00:37:17;10.73;;;4.85;;
54263;SDS011;40178;53.042;6.406;2022-08-19T00:39:44;8.35;;;4.28;;
54263;SDS011;40178;53.042;6.406;2022-08-19T00:42:10;10.18;;;4.25;;
54263;SDS011;40178;53.042;6.406;2022-08-19T00:44:35;6.50;;;3.88;;
54263;SDS011;40178;53.042;6.406;2022-08-19T00:47:01;7.05;;;3.95;;
54263;SDS011;40178;53.042;6.406;2022-08-19T00:52:30;4.90;;;1.73;;
54263;SDS011;40178;53.042;6.406;2022-08-19T00:54:50;6.00;;;2.10;;
54263;SDS011;40178;53.042;6.406;2022-08-19T00:57:18;7.00;;;2.72;;
54263;SDS011;40178;53.042;6.406;2022-08-19T00:59:50;7.25;;;3.60;;
54263;SDS011;40178;53.042;6.406;2022-08-19T01:02:18;7.88;;;3.45;;
54263;SDS011;40178;53.042;6.406;2022-08-19T01:04:44;3.53;;;1.00;;
54263;SDS011;40178;53.042;6.406;2022-08-19T01:07:09;2.70;;;0.77;;
54263;SDS011;40178;53.042;6.406;2022-08-19T01:09:35;2.72;;;0.70;;
54263;SDS011;40178;53.042;6.406;2022-08-19T01:12:01;2.53;;;0.88;;
54263;SDS011;40178;53.042;6.406;2022-08-19T01:14:27;3.83;;;1.40;;
54263;SDS011;40178;53.042;6.406;2022-08-19T01:16:54;4.60;;;1.58;;
54263;SDS011;40178;53.042;6.406;2022-08-19T01:19:32;3.85;;;1.20;;
54263;SDS011;40178;53.042;6.406;2022-08-19T01:22:03;3.83;;;1.50;;
54263;SDS011;40178;53.042;6.406;2022-08-19T01:24:35;5.05;;;2.05;;
54263;SDS011;40178;53.042;6.406;2022-08-19T01:27:03;5.72;;;2.83;;
54263;SDS011;40178;53.042;6.406;2022-08-19T01:29:29;6.18;;;1.80;;
54263;SDS011;40178;53.042;6.406;2022-08-19T01:31:55;6.80;;;2.33;;
54263;SDS011;40178;53.042;6.406;2022-08-19T01:34:21;3.53;;;1.52;;
54263;SDS011;40178;53.042;6.406;2022-08-19T01:36:47;3.58;;;1.80;;
54263;SDS011;40178;53.042;6.406;2022-08-19T01:39:15;4.40;;;1.30;;
54263;SDS011;40178;53.042;6.406;2022-08-19T01:41:44;4.68;;;1.90;;
54263;SDS011;40178;53.042;6.406;2022-08-19T01:44:10;4.53;;;1.90;;
54263;SDS011;40178;53.042;6.406;2022-08-19T01:46:36;11.50;;;2.35;;
54263;SDS011;40178;53.042;6.406;2022-08-19T01:49:03;12.13;;;2.70;;
54263;SDS011;40178;53.042;6.406;2022-08-19T01:51:30;29.73;;;3.30;;
54263;SDS011;40178;53.042;6.406;2022-08-19T01:53:56;9.88;;;2.28;;
54263;SDS011;40178;53.042;6.406;2022-08-19T01:56:23;16.77;;;2.72;;
54263;SDS011;40178;53.042;6.406;2022-08-19T01:58:51;9.25;;;1.92;;
54263;SDS011;40178;53.042;6.406;2022-08-19T02:01:25;5.53;;;1.40;;
54263;SDS011;40178;53.042;6.406;2022-08-19T02:03:50;18.40;;;2.50;;
54263;SDS011;40178;53.042;6.406;2022-08-19T02:06:19;6.15;;;2.10;;
54263;SDS011;40178;53.042;6.406;2022-08-19T02:08:45;7.90;;;3.83;;
54263;SDS011;40178;53.042;6.406;2022-08-19T02:11:18;14.68;;;2.80;;
54263;SDS011;40178;53.042;6.406;2022-08-19T02:13:52;6.25;;;3.10;;
54263;SDS011;40178;53.042;6.406;2022-08-19T02:16:19;6.20;;;3.13;;
54263;SDS011;40178;53.042;6.406;2022-08-19T02:18:45;6.95;;;3.10;;
54263;SDS011;40178;53.042;6.406;2022-08-19T02:21:13;8.20;;;3.42;;
54263;SDS011;40178;53.042;6.406;2022-08-19T02:23:41;6.32;;;3.15;;
54263;SDS011;40178;53.042;6.406;2022-08-19T02:26:07;6.65;;;3.35;;
54263;SDS011;40178;53.042;6.406;2022-08-19T02:28:32;7.03;;;3.15;;
54263;SDS011;40178;53.042;6.406;2022-08-19T02:30:58;6.75;;;3.30;;
54263;SDS011;40178;53.042;6.406;2022-08-19T02:33:25;8.93;;;4.68;;
54263;SDS011;40178;53.042;6.406;2022-08-19T02:35:51;8.82;;;4.60;;
54263;SDS011;40178;53.042;6.406;2022-08-19T02:38:17;8.45;;;4.65;;
54263;SDS011;40178;53.042;6.406;2022-08-19T02:40:53;10.13;;;4.80;;
54263;SDS011;40178;53.042;6.406;2022-08-19T02:43:22;10.13;;;5.53;;
54263;SDS011;40178;53.042;6.406;2022-08-19T02:45:48;10.73;;;5.50;;
54263;SDS011;40178;53.042;6.406;2022-08-19T02:48:16;9.40;;;4.88;;
54263;SDS011;40178;53.042;6.406;2022-08-19T02:50:44;9.18;;;4.18;;
54263;SDS011;40178;53.042;6.406;2022-08-19T02:53:10;9.35;;;4.47;;
54263;SDS011;40178;53.042;6.406;2022-08-19T02:55:41;7.70;;;4.40;;
54263;SDS011;40178;53.042;6.406;2022-08-19T02:58:08;9.95;;;4.13;;
54263;SDS011;40178;53.042;6.406;2022-08-19T03:00:34;8.25;;;3.80;;
54263;SDS011;40178;53.042;6.406;2022-08-19T03:02:59;8.50;;;3.83;;
54263;SDS011;40178;53.042;6.406;2022-08-19T03:05:25;7.82;;;4.53;;
54263;SDS011;40178;53.042;6.406;2022-08-19T03:07:52;8.93;;;4.70;;
54263;SDS011;40178;53.042;6.406;2022-08-19T03:10:18;8.60;;;3.78;;
54263;SDS011;40178;53.042;6.406;2022-08-19T03:12:43;8.32;;;3.65;;
54263;SDS011;40178;53.042;6.406;2022-08-19T03:15:11;8.38;;;4.20;;
54263;SDS011;40178;53.042;6.406;2022-08-19T03:17:36;9.32;;;4.85;;
54263;SDS011;40178;53.042;6.406;2022-08-19T03:20:03;8.25;;;4.38;;
54263;SDS011;40178;53.042;6.406;2022-08-19T03:22:29;12.05;;;4.68;;
54263;SDS011;40178;53.042;6.406;2022-08-19T03:24:55;7.90;;;3.50;;
54263;SDS011;40178;53.042;6.406;2022-08-19T03:27:21;6.70;;;3.28;;
54263;SDS011;40178;53.042;6.406;2022-08-19T03:29:47;8.45;;;3.45;;
54263;SDS011;40178;53.042;6.406;2022-08-19T03:32:13;7.35;;;3.58;;
54263;SDS011;40178;53.042;6.406;2022-08-19T03:34:38;7.32;;;3.45;;
54263;SDS011;40178;53.042;6.406;2022-08-19T03:37:05;8.90;;;3.75;;
54263;SDS011;40178;53.042;6.406;2022-08-19T03:39:33;7.03;;;3.20;;
54263;SDS011;40178;53.042;6.406;2022-08-19T03:42:00;5.93;;;3.05;;
54263;SDS011;40178;53.042;6.406;2022-08-19T03:44:27;6.53;;;2.90;;
54263;SDS011;40178;53.042;6.406;2022-08-19T03:46:55;6.65;;;3.17;;
54263;SDS011;40178;53.042;6.406;2022-08-19T03:49:23;6.18;;;3.08;;
54263;SDS011;40178;53.042;6.406;2022-08-19T03:51:51;5.85;;;3.00;;
54263;SDS011;40178;53.042;6.406;2022-08-19T03:54:18;7.55;;;3.85;;
54263;SDS011;40178;53.042;6.406;2022-08-19T03:56:48;7.85;;;3.58;;
54263;SDS011;40178;53.042;6.406;2022-08-19T03:59:16;6.63;;;3.50;;
54263;SDS011;40178;53.042;6.406;2022-08-19T04:01:54;5.82;;;2.70;;
54263;SDS011;40178;53.042;6.406;2022-08-19T04:04:22;6.30;;;3.05;;
54263;SDS011;40178;53.042;6.406;2022-08-19T04:06:49;6.03;;;2.88;;
54263;SDS011;40178;53.042;6.406;2022-08-19T04:09:16;6.85;;;3.45;;
54263;SDS011;40178;53.042;6.406;2022-08-19T04:11:44;6.40;;;2.75;;
54263;SDS011;40178;53.042;6.406;2022-08-19T04:14:14;6.50;;;3.08;;
54263;SDS011;40178;53.042;6.406;2022-08-19T04:16:43;6.97;;;3.10;;
54263;SDS011;40178;53.042;6.406;2022-08-19T04:19:10;9.35;;;4.25;;
54263;SDS011;40178;53.042;6.406;2022-08-19T04:21:36;9.13;;;4.10;;
54263;SDS011;40178;53.042;6.406;2022-08-19T04:24:02;11.00;;;3.83;;
54263;SDS011;40178;53.042;6.406;2022-08-19T04:26:30;11.68;;;4.57;;
54263;SDS011;40178;53.042;6.406;2022-08-19T04:29:20;4.30;;;1.88;;
54263;SDS011;40178;53.042;6.406;2022-08-19T04:32:19;5.25;;;1.52;;
54263;SDS011;40178;53.042;6.406;2022-08-19T04:35:07;5.50;;;2.17;;
54263;SDS011;40178;53.042;6.406;2022-08-19T04:37:45;5.15;;;2.10;;
54263;SDS011;40178;53.042;6.406;2022-08-19T04:40:20;7.57;;;3.53;;
54263;SDS011;40178;53.042;6.406;2022-08-19T04:43:19;10.50;;;4.90;;
54263;SDS011;40178;53.042;6.406;2022-08-19T04:46:12;8.20;;;4.32;;
54263;SDS011;40178;53.042;6.406;2022-08-19T04:48:59;7.65;;;3.20;;
54263;SDS011;40178;53.042;6.406;2022-08-19T04:51:50;8.95;;;4.05;;
54263;SDS011;40178;53.042;6.406;2022-08-19T04:54:30;8.05;;;4.30;;
54263;SDS011;40178;53.042;6.406;2022-08-19T04:57:11;7.45;;;3.60;;
54263;SDS011;40178;53.042;6.406;2022-08-19T05:00:16;10.77;;;4.10;;
54263;SDS011;40178;53.042;6.406;2022-08-19T05:02:50;10.98;;;5.65;;
54263;SDS011;40178;53.042;6.406;2022-08-19T05:06:09;9.35;;;4.55;;
54263;SDS011;40178;53.042;6.406;2022-08-19T05:08:37;10.35;;;5.38;;
54263;SDS011;40178;53.042;6.406;2022-08-19T05:11:11;11.25;;;5.72;;
54263;SDS011;40178;53.042;6.406;2022-08-19T05:13:40;12.10;;;6.13;;
54263;SDS011;40178;53.042;6.406;2022-08-19T05:16:08;13.93;;;5.30;;
54263;SDS011;40178;53.042;6.406;2022-08-19T05:18:35;10.45;;;5.45;;
54263;SDS011;40178;53.042;6.406;2022-08-19T05:21:19;12.60;;;6.22;;
54263;SDS011;40178;53.042;6.406;2022-08-19T05:24:04;11.82;;;5.15;;
54263;SDS011;40178;53.042;6.406;2022-08-19T05:26:37;12.32;;;5.60;;
54263;SDS011;40178;53.042;6.406;2022-08-19T05:29:05;10.88;;;5.95;;
54263;SDS011;40178;53.042;6.406;2022-08-19T05:31:32;19.95;;;9.43;;
54263;SDS011;40178;53.042;6.406;2022-08-19T05:33:58;17.83;;;9.23;;
54263;SDS011;40178;53.042;6.406;2022-08-19T05:36:28;17.77;;;8.98;;
54263;SDS011;40178;53.042;6.406;2022-08-19T05:41:25;18.92;;;9.45;;
54263;SDS011;40178;53.042;6.406;2022-08-19T05:43:54;23.52;;;11.23;;
54263;SDS011;40178;53.042;6.406;2022-08-19T05:46:21;23.05;;;12.52;;
54263;SDS011;40178;53.042;6.406;2022-08-19T05:48:48;23.67;;;12.40;;
54263;SDS011;40178;53.042;6.406;2022-08-19T05:51:13;30.17;;;13.80;;
54263;SDS011;40178;53.042;6.406;2022-08-19T05:53:41;27.27;;;13.75;;
54263;SDS011;40178;53.042;6.406;2022-08-19T05:56:08;28.80;;;13.88;;
54263;SDS011;40178;53.042;6.406;2022-08-19T05:58:36;29.08;;;13.50;;
54263;SDS011;40178;53.042;6.406;2022-08-19T06:01:02;30.50;;;15.02;;
54263;SDS011;40178;53.042;6.406;2022-08-19T06:03:33;34.47;;;16.30;;
54263;SDS011;40178;53.042;6.406;2022-08-19T06:06:00;33.90;;;15.25;;
54263;SDS011;40178;53.042;6.406;2022-08-19T06:08:27;32.28;;;15.57;;
54263;SDS011;40178;53.042;6.406;2022-08-19T06:10:53;28.63;;;15.23;;
54263;SDS011;40178;53.042;6.406;2022-08-19T06:13:18;30.05;;;14.10;;
54263;SDS011;40178;53.042;6.406;2022-08-19T06:15:45;31.80;;;14.88;;
54263;SDS011;40178;53.042;6.406;2022-08-19T06:18:11;32.75;;;14.65;;
54263;SDS011;40178;53.042;6.406;2022-08-19T06:20:38;29.08;;;14.05;;
54263;SDS011;40178;53.042;6.406;2022-08-19T06:23:04;24.73;;;12.48;;
54263;SDS011;40178;53.042;6.406;2022-08-19T06:25:30;26.83;;;12.63;;
54263;SDS011;40178;53.042;6.406;2022-08-19T06:27:55;26.70;;;12.55;;
54263;SDS011;40178;53.042;6.406;2022-08-19T06:30:21;26.17;;;11.95;;
54263;SDS011;40178;53.042;6.406;2022-08-19T06:32:47;25.48;;;12.48;;
54263;SDS011;40178;53.042;6.406;2022-08-19T06:35:12;19.48;;;11.10;;
54263;SDS011;40178;53.042;6.406;2022-08-19T06:37:39;21.63;;;11.73;;
54263;SDS011;40178;53.042;6.406;2022-08-19T06:40:05;20.23;;;10.85;;
54263;SDS011;40178;53.042;6.406;2022-08-19T06:42:34;19.65;;;10.93;;
54263;SDS011;40178;53.042;6.406;2022-08-19T06:45:00;19.13;;;10.50;;
54263;SDS011;40178;53.042;6.406;2022-08-19T06:47:28;22.00;;;11.18;;
54263;SDS011;40178;53.042;6.406;2022-08-19T06:49:56;19.08;;;9.75;;
54263;SDS011;40178;53.042;6.406;2022-08-19T06:52:31;19.02;;;10.50;;
54263;SDS011;40178;53.042;6.406;2022-08-19T06:54:59;22.27;;;10.90;;
54263;SDS011;40178;53.042;6.406;2022-08-19T06:57:26;21.58;;;11.13;;
54263;SDS011;40178;53.042;6.406;2022-08-19T06:59:52;15.68;;;9.93;;
54263;SDS011;40178;53.042;6.406;2022-08-19T07:02:18;21.20;;;11.15;;
54263;SDS011;40178;53.042;6.406;2022-08-19T07:04:45;22.02;;;11.20;;
54263;SDS011;40178;53.042;6.406;2022-08-19T07:07:12;19.27;;;10.80;;
54263;SDS011;40178;53.042;6.406;2022-08-19T07:09:40;16.73;;;10.75;;
54263;SDS011;40178;53.042;6.406;2022-08-19T07:12:08;19.00;;;10.23;;
54263;SDS011;40178;53.042;6.406;2022-08-19T07:14:36;17.00;;;10.07;;
54263;SDS011;40178;53.042;6.406;2022-08-19T07:17:03;19.92;;;9.65;;
54263;SDS011;40178;53.042;6.406;2022-08-19T07:19:31;18.85;;;10.60;;
54263;SDS011;40178;53.042;6.406;2022-08-19T07:21:58;19.50;;;11.45;;
54263;SDS011;40178;53.042;6.406;2022-08-19T07:24:27;20.20;;;10.30;;
54263;SDS011;40178;53.042;6.406;2022-08-19T07:26:54;17.25;;;10.00;;
54263;SDS011;40178;53.042;6.406;2022-08-19T07:29:25;17.77;;;10.25;;
54263;SDS011;40178;53.042;6.406;2022-08-19T07:31:53;18.67;;;9.52;;
54263;SDS011;40178;53.042;6.406;2022-08-19T07:34:24;18.77;;;9.70;;
54263;SDS011;40178;53.042;6.406;2022-08-19T07:36:50;16.52;;;9.38;;
54263;SDS011;40178;53.042;6.406;2022-08-19T07:39:19;16.48;;;9.98;;
54263;SDS011;40178;53.042;6.406;2022-08-19T07:41:47;16.23;;;9.65;;
54263;SDS011;40178;53.042;6.406;2022-08-19T07:44:14;15.02;;;8.98;;
54263;SDS011;40178;53.042;6.406;2022-08-19T07:46:44;18.00;;;9.18;;
54263;SDS011;40178;53.042;6.406;2022-08-19T07:49:12;14.20;;;8.55;;
54263;SDS011;40178;53.042;6.406;2022-08-19T07:51:43;13.50;;;8.27;;
54263;SDS011;40178;53.042;6.406;2022-08-19T07:54:10;12.90;;;8.07;;
54263;SDS011;40178;53.042;6.406;2022-08-19T07:56:36;12.15;;;7.80;;
54263;SDS011;40178;53.042;6.406;2022-08-19T07:59:02;13.18;;;7.35;;
54263;SDS011;40178;53.042;6.406;2022-08-19T08:01:28;14.55;;;7.00;;
54263;SDS011;40178;53.042;6.406;2022-08-19T08:03:54;13.85;;;6.95;;
54263;SDS011;40178;53.042;6.406;2022-08-19T08:06:39;13.73;;;7.38;;
54263;SDS011;40178;53.042;6.406;2022-08-19T08:09:35;12.30;;;6.97;;
54263;SDS011;40178;53.042;6.406;2022-08-19T08:12:05;14.25;;;8.30;;
54263;SDS011;40178;53.042;6.406;2022-08-19T08:14:34;12.35;;;7.40;;
54263;SDS011;40178;53.042;6.406;2022-08-19T08:17:04;13.35;;;7.63;;
54263;SDS011;40178;53.042;6.406;2022-08-19T08:19:30;13.35;;;7.68;;
54263;SDS011;40178;53.042;6.406;2022-08-19T08:21:57;13.75;;;6.95;;
54263;SDS011;40178;53.042;6.406;2022-08-19T08:24:27;13.38;;;8.13;;
54263;SDS011;40178;53.042;6.406;2022-08-19T08:26:56;14.73;;;8.63;;
54263;SDS011;40178;53.042;6.406;2022-08-19T08:29:24;14.88;;;8.43;;
54263;SDS011;40178;53.042;6.406;2022-08-19T08:31:50;12.80;;;7.47;;
54263;SDS011;40178;53.042;6.406;2022-08-19T08:34:16;13.98;;;8.23;;
54263;SDS011;40178;53.042;6.406;2022-08-19T08:36:43;15.48;;;8.73;;
54263;SDS011;40178;53.042;6.406;2022-08-19T08:39:14;15.55;;;8.45;;
54263;SDS011;40178;53.042;6.406;2022-08-19T08:47:02;12.75;;;8.45;;
54263;SDS011;40178;53.042;6.406;2022-08-19T08:49:39;16.70;;;9.23;;
54263;SDS011;40178;53.042;6.406;2022-08-19T08:52:11;13.50;;;8.25;;
54263;SDS011;40178;53.042;6.406;2022-08-19T08:54:45;13.38;;;7.80;;
54263;SDS011;40178;53.042;6.406;2022-08-19T09:00:30;14.18;;;8.88;;
54263;SDS011;40178;53.042;6.406;2022-08-19T09:02:58;14.88;;;9.75;;
54263;SDS011;40178;53.042;6.406;2022-08-19T09:05:32;14.93;;;9.23;;
54263;SDS011;40178;53.042;6.406;2022-08-19T09:08:13;14.55;;;8.82;;
54263;SDS011;40178;53.042;6.406;2022-08-19T09:10:51;16.08;;;9.55;;
54263;SDS011;40178;53.042;6.406;2022-08-19T09:15:58;15.23;;;10.10;;
54263;SDS011;40178;53.042;6.406;2022-08-19T09:18:43;13.52;;;8.27;;
54263;SDS011;40178;53.042;6.406;2022-08-19T09:21:09;14.25;;;9.38;;
54263;SDS011;40178;53.042;6.406;2022-08-19T09:23:35;17.17;;;10.38;;
54263;SDS011;40178;53.042;6.406;2022-08-19T09:26:06;14.85;;;8.73;;
54263;SDS011;40178;53.042;6.406;2022-08-19T09:28:33;14.43;;;8.35;;
54263;SDS011;40178;53.042;6.406;2022-08-19T09:30:59;14.18;;;8.93;;
54263;SDS011;40178;53.042;6.406;2022-08-19T09:33:25;13.25;;;7.78;;
54263;SDS011;40178;53.042;6.406;2022-08-19T09:36:01;13.68;;;8.40;;
54263;SDS011;40178;53.042;6.406;2022-08-19T09:38:32;15.90;;;10.13;;
54263;SDS011;40178;53.042;6.406;2022-08-19T09:41:05;13.55;;;8.43;;
54263;SDS011;40178;53.042;6.406;2022-08-19T09:43:32;14.57;;;8.75;;
54263;SDS011;40178;53.042;6.406;2022-08-19T09:46:01;15.60;;;9.20;;
54263;SDS011;40178;53.042;6.406;2022-08-19T09:48:30;13.93;;;9.35;;
54263;SDS011;40178;53.042;6.406;2022-08-19T09:51:02;17.00;;;10.13;;
54263;SDS011;40178;53.042;6.406;2022-08-19T09:53:33;17.25;;;9.75;;
54263;SDS011;40178;53.042;6.406;2022-08-19T09:55:59;15.60;;;10.02;;
54263;SDS011;40178;53.042;6.406;2022-08-19T09:58:26;19.27;;;10.73;;
54263;SDS011;40178;53.042;6.406;2022-08-19T10:00:56;18.08;;;11.07;;
54263;SDS011;40178;53.042;6.406;2022-08-19T10:03:23;15.65;;;9.43;;
54263;SDS011;40178;53.042;6.406;2022-08-19T10:05:49;15.20;;;9.55;;
54263;SDS011;40178;53.042;6.406;2022-08-19T10:08:16;16.33;;;10.13;;
54263;SDS011;40178;53.042;6.406;2022-08-19T10:10:44;15.15;;;9.75;;
54263;SDS011;40178;53.042;6.406;2022-08-19T10:13:11;15.32;;;9.73;;
54263;SDS011;40178;53.042;6.406;2022-08-19T10:15:37;13.52;;;9.07;;
54263;SDS011;40178;53.042;6.406;2022-08-19T10:18:05;17.17;;;10.70;;
54263;SDS011;40178;53.042;6.406;2022-08-19T10:20:31;16.48;;;9.05;;
54263;SDS011;40178;53.042;6.406;2022-08-19T10:22:57;17.35;;;9.55;;
54263;SDS011;40178;53.042;6.406;2022-08-19T10:25:24;14.35;;;9.15;;
54263;SDS011;40178;53.042;6.406;2022-08-19T10:27:51;15.98;;;10.70;;
54263;SDS011;40178;53.042;6.406;2022-08-19T10:30:17;18.52;;;11.80;;
54263;SDS011;40178;53.042;6.406;2022-08-19T10:32:43;13.65;;;9.75;;
54263;SDS011;40178;53.042;6.406;2022-08-19T10:35:11;16.67;;;11.70;;
54263;SDS011;40178;53.042;6.406;2022-08-19T10:37:38;20.42;;;11.07;;
54263;SDS011;40178;53.042;6.406;2022-08-19T10:40:07;17.50;;;11.32;;
54263;SDS011;40178;53.042;6.406;2022-08-19T10:42:35;17.67;;;11.10;;
54263;SDS011;40178;53.042;6.406;2022-08-19T10:45:01;17.48;;;11.93;;
54263;SDS011;40178;53.042;6.406;2022-08-19T10:47:28;16.58;;;11.25;;
54263;SDS011;40178;53.042;6.406;2022-08-19T10:49:54;17.50;;;10.95;;
54263;SDS011;40178;53.042;6.406;2022-08-19T10:52:39;17.08;;;11.25;;
54263;SDS011;40178;53.042;6.406;2022-08-19T10:55:07;19.30;;;11.25;;
54263;SDS011;40178;53.042;6.406;2022-08-19T10:57:52;16.70;;;11.63;;
54263;SDS011;40178;53.042;6.406;2022-08-19T11:00:18;16.83;;;11.43;;
54263;SDS011;40178;53.042;6.406;2022-08-19T11:02:44;16.92;;;10.98;;
54263;SDS011;40178;53.042;6.406;2022-08-19T11:05:11;15.52;;;11.00;;
54263;SDS011;40178;53.042;6.406;2022-08-19T11:07:40;17.55;;;11.77;;
54263;SDS011;40178;53.042;6.406;2022-08-19T11:10:06;14.88;;;11.07;;
54263;SDS011;40178;53.042;6.406;2022-08-19T11:12:36;15.18;;;11.30;;
54263;SDS011;40178;53.042;6.406;2022-08-19T11:15:04;19.08;;;12.68;;
54263;SDS011;40178;53.042;6.406;2022-08-19T11:17:35;17.35;;;12.63;;
54263;SDS011;40178;53.042;6.406;2022-08-19T11:20:08;15.60;;;10.75;;
54263;SDS011;40178;53.042;6.406;2022-08-19T11:22:36;16.52;;;10.55;;
54263;SDS011;40178;53.042;6.406;2022-08-19T11:25:01;14.25;;;8.55;;
54263;SDS011;40178;53.042;6.406;2022-08-19T11:27:27;11.52;;;7.82;;
54263;SDS011;40178;53.042;6.406;2022-08-19T11:29:54;12.75;;;7.65;;
54263;SDS011;40178;53.042;6.406;2022-08-19T11:32:19;13.27;;;8.48;;
54263;SDS011;40178;53.042;6.406;2022-08-19T11:34:45;13.90;;;8.00;;
54263;SDS011;40178;53.042;6.406;2022-08-19T11:37:10;14.82;;;8.77;;
54263;SDS011;40178;53.042;6.406;2022-08-19T11:39:36;11.98;;;7.47;;
54263;SDS011;40178;53.042;6.406;2022-08-19T11:42:02;13.68;;;8.27;;
54263;SDS011;40178;53.042;6.406;2022-08-19T11:44:50;12.23;;;7.63;;
54263;SDS011;40178;53.042;6.406;2022-08-19T11:47:16;10.95;;;6.75;;
54263;SDS011;40178;53.042;6.406;2022-08-19T11:49:42;11.82;;;7.38;;
54263;SDS011;40178;53.042;6.406;2022-08-19T11:52:08;10.40;;;6.45;;
54263;SDS011;40178;53.042;6.406;2022-08-19T11:54:34;12.45;;;7.40;;
54263;SDS011;40178;53.042;6.406;2022-08-19T11:57:02;12.48;;;6.68;;
54263;SDS011;40178;53.042;6.406;2022-08-19T11:59:31;11.55;;;7.20;;
54263;SDS011;40178;53.042;6.406;2022-08-19T12:01:56;11.20;;;6.30;;
54263;SDS011;40178;53.042;6.406;2022-08-19T12:04:22;11.93;;;6.32;;
54263;SDS011;40178;53.042;6.406;2022-08-19T12:06:48;11.55;;;5.93;;
54263;SDS011;40178;53.042;6.406;2022-08-19T12:09:15;9.80;;;5.65;;
54263;SDS011;40178;53.042;6.406;2022-08-19T12:11:41;10.18;;;5.85;;
54263;SDS011;40178;53.042;6.406;2022-08-19T12:14:08;11.30;;;6.50;;
54263;SDS011;40178;53.042;6.406;2022-08-19T12:16:36;10.45;;;5.35;;
54263;SDS011;40178;53.042;6.406;2022-08-19T12:19:03;8.93;;;5.13;;
54263;SDS011;40178;53.042;6.406;2022-08-19T12:21:30;10.65;;;4.95;;
54263;SDS011;40178;53.042;6.406;2022-08-19T12:23:58;10.70;;;6.70;;
54263;SDS011;40178;53.042;6.406;2022-08-19T12:26:25;12.27;;;7.38;;
54263;SDS011;40178;53.042;6.406;2022-08-19T12:28:52;9.80;;;5.85;;
54263;SDS011;40178;53.042;6.406;2022-08-19T12:31:18;10.27;;;6.30;;
54263;SDS011;40178;53.042;6.406;2022-08-19T12:33:45;8.32;;;6.05;;
54263;SDS011;40178;53.042;6.406;2022-08-19T12:36:11;13.45;;;5.82;;
54263;SDS011;40178;53.042;6.406;2022-08-19T12:38:40;9.93;;;6.05;;
54263;SDS011;40178;53.042;6.406;2022-08-19T12:41:08;7.15;;;4.80;;
54263;SDS011;40178;53.042;6.406;2022-08-19T12:43:37;8.50;;;5.47;;
54263;SDS011;40178;53.042;6.406;2022-08-19T12:46:03;8.40;;;5.53;;
54263;SDS011;40178;53.042;6.406;2022-08-19T12:48:30;12.13;;;6.15;;
54263;SDS011;40178;53.042;6.406;2022-08-19T12:50:56;11.43;;;6.80;;
54263;SDS011;40178;53.042;6.406;2022-08-19T12:53:22;10.75;;;6.25;;
54263;SDS011;40178;53.042;6.406;2022-08-19T12:55:54;14.23;;;8.70;;
54263;SDS011;40178;53.042;6.406;2022-08-19T12:58:21;11.57;;;7.97;;
54263;SDS011;40178;53.042;6.406;2022-08-19T13:00:47;13.57;;;8.68;;
54263;SDS011;40178;53.042;6.406;2022-08-19T13:03:13;14.63;;;8.93;;
54263;SDS011;40178;53.042;6.406;2022-08-19T13:05:39;16.13;;;10.80;;
54263;SDS011;40178;53.042;6.406;2022-08-19T13:08:04;20.65;;;11.70;;
54263;SDS011;40178;53.042;6.406;2022-08-19T13:10:31;18.33;;;11.75;;
54263;SDS011;40178;53.042;6.406;2022-08-19T13:13:03;20.25;;;12.10;;
54263;SDS011;40178;53.042;6.406;2022-08-19T13:15:32;24.58;;;13.75;;
54263;SDS011;40178;53.042;6.406;2022-08-19T13:17:59;20.92;;;13.70;;
54263;SDS011;40178;53.042;6.406;2022-08-19T13:20:25;20.77;;;12.98;;
54263;SDS011;40178;53.042;6.406;2022-08-19T13:22:51;21.80;;;13.27;;
54263;SDS011;40178;53.042;6.406;2022-08-19T13:25:18;19.48;;;13.32;;
54263;SDS011;40178;53.042;6.406;2022-08-19T13:27:45;21.33;;;13.32;;
54263;SDS011;40178;53.042;6.406;2022-08-19T13:30:16;25.33;;;14.27;;
54263;SDS011;40178;53.042;6.406;2022-08-19T13:33:01;21.65;;;14.85;;
54263;SDS011;40178;53.042;6.406;2022-08-19T13:35:41;26.05;;;14.75;;
54263;SDS011;40178;53.042;6.406;2022-08-19T13:38:08;23.98;;;17.13;;
54263;SDS011;40178;53.042;6.406;2022-08-19T13:40:35;25.15;;;16.60;;
54263;SDS011;40178;53.042;6.406;2022-08-19T13:43:02;27.42;;;17.30;;
54263;SDS011;40178;53.042;6.406;2022-08-19T13:45:29;24.48;;;17.35;;
54263;SDS011;40178;53.042;6.406;2022-08-19T13:48:00;25.33;;;16.73;;
54263;SDS011;40178;53.042;6.406;2022-08-19T13:50:31;22.00;;;14.55;;
54263;SDS011;40178;53.042;6.406;2022-08-19T13:52:58;24.67;;;15.48;;
54263;SDS011;40178;53.042;6.406;2022-08-19T13:55:23;23.70;;;15.50;;
54263;SDS011;40178;53.042;6.406;2022-08-19T13:57:54;21.67;;;14.65;;
54263;SDS011;40178;53.042;6.406;2022-08-19T14:00:21;23.60;;;15.15;;
54263;SDS011;40178;53.042;6.406;2022-08-19T14:02:50;20.35;;;13.77;;
54263;SDS011;40178;53.042;6.406;2022-08-19T14:05:16;21.85;;;14.15;;
54263;SDS011;40178;53.042;6.406;2022-08-19T14:07:43;21.40;;;14.25;;
54263;SDS011;40178;53.042;6.406;2022-08-19T14:10:09;20.05;;;13.43;;
54263;SDS011;40178;53.042;6.406;2022-08-19T14:12:36;18.92;;;13.25;;
54263;SDS011;40178;53.042;6.406;2022-08-19T14:15:03;20.50;;;13.82;;
54263;SDS011;40178;53.042;6.406;2022-08-19T14:17:30;20.30;;;13.07;;
54263;SDS011;40178;53.042;6.406;2022-08-19T14:19:59;22.15;;;13.80;;
54263;SDS011;40178;53.042;6.406;2022-08-19T14:22:28;24.40;;;14.82;;
54263;SDS011;40178;53.042;6.406;2022-08-19T14:24:56;24.63;;;15.50;;
54263;SDS011;40178;53.042;6.406;2022-08-19T14:27:22;25.33;;;15.98;;
54263;SDS011;40178;53.042;6.406;2022-08-19T14:29:50;29.33;;;18.92;;
54263;SDS011;40178;53.042;6.406;2022-08-19T14:32:16;26.60;;;16.27;;
54263;SDS011;40178;53.042;6.406;2022-08-19T14:34:42;27.10;;;16.85;;
54263;SDS011;40178;53.042;6.406;2022-08-19T14:37:10;29.75;;;18.00;;
54263;SDS011;40178;53.042;6.406;2022-08-19T14:39:43;28.38;;;18.27;;
54263;SDS011;40178;53.042;6.406;2022-08-19T14:42:14;28.83;;;17.58;;
54263;SDS011;40178;53.042;6.406;2022-08-19T14:44:40;27.45;;;15.80;;
54263;SDS011;40178;53.042;6.406;2022-08-19T14:47:07;27.73;;;14.88;;
54263;SDS011;40178;53.042;6.406;2022-08-19T14:49:33;25.60;;;14.10;;
54263;SDS011;40178;53.042;6.406;2022-08-19T14:51:59;17.33;;;10.38;;
54263;SDS011;40178;53.042;6.406;2022-08-19T14:54:25;16.75;;;9.90;;
54263;SDS011;40178;53.042;6.406;2022-08-19T14:56:50;17.13;;;8.80;;
54263;SDS011;40178;53.042;6.406;2022-08-19T14:59:16;16.15;;;7.63;;